createdAt,value
2023-04-16T03:02:45.092Z,100231.18
2023-04-16T03:05:15.097Z,100234.27
2023-04-16T03:07:44.036Z,100237.30
2023-04-16T03:10:14.405Z,100238.86
2023-04-16T03:12:43.798Z,100239.56
2023-04-16T03:15:13.318Z,100239.73
2023-04-16T03:17:43.095Z,100241.67
2023-04-16T03:20:12.308Z,100242.95
2023-04-16T03:22:41.501Z,100242.00
2023-04-16T03:25:10.674Z,100244.45
2023-04-16T03:27:43.035Z,100247.42
2023-04-16T03:30:13.549Z,100245.96
2023-04-16T03:32:43.481Z,100253.62
2023-04-16T03:35:13.476Z,100253.35
2023-04-16T03:37:42.568Z,100258.18
2023-04-16T03:40:11.653Z,100264.46
2023-04-16T03:42:41.168Z,100263.64
2023-04-16T03:45:10.032Z,100261.73
2023-04-16T03:47:38.993Z,100264.73
2023-04-16T03:50:07.968Z,100264.81
2023-04-16T03:52:37.740Z,100261.49
2023-04-16T03:55:07.100Z,100269.88
2023-04-16T03:57:36.621Z,100271.11
2023-04-16T04:00:10.596Z,100276.88
2023-04-16T04:03:00.047Z,100275.44
2023-04-16T04:05:28.924Z,100278.56
2023-04-16T04:07:57.603Z,100280.73
2023-04-16T04:10:26.663Z,100285.48
2023-04-16T04:12:55.503Z,100288.99
2023-04-16T04:15:24.142Z,100290.07
2023-04-16T04:17:53.253Z,100294.81
2023-04-16T04:20:22.360Z,100297.46
2023-04-16T04:22:52.929Z,100297.54
2023-04-16T04:25:24.295Z,100297.27
2023-04-16T04:27:52.740Z,100298.64
2023-04-16T04:30:21.391Z,100296.80
2023-04-16T04:32:49.987Z,100297.90
2023-04-16T04:35:18.680Z,100297.16
2023-04-16T04:37:49.818Z,100301.41
2023-04-16T04:40:21.549Z,100304.56
2023-04-16T04:42:50.077Z,100308.42
2023-04-16T04:45:19.939Z,100307.41
2023-04-16T04:47:49.430Z,100304.77
2023-04-16T04:50:18.338Z,100302.46
2023-04-16T04:52:47.113Z,100301.52
2023-04-16T04:55:16.794Z,100303.38
2023-04-16T04:57:46.178Z,100305.04
2023-04-16T05:00:15.173Z,100303.40
2023-04-16T05:02:51.123Z,100303.95
2023-04-16T05:05:20.390Z,100303.22
2023-04-16T05:07:49.403Z,100303.27
2023-04-16T05:10:18.734Z,100308.56
2023-04-16T05:12:51.334Z,100309.73
2023-04-16T05:15:20.009Z,100308.18
2023-04-16T05:17:48.575Z,100311.50
2023-04-16T05:20:16.932Z,100315.05
2023-04-16T05:22:48.434Z,100315.73
2023-04-16T05:25:17.632Z,100319.77
2023-04-16T05:27:46.331Z,100322.36
2023-04-16T05:30:14.672Z,100326.02
2023-04-16T05:32:43.127Z,100326.69
2023-04-16T05:35:11.734Z,100329.53
2023-04-16T05:37:40.572Z,100335.04
2023-04-16T05:40:09.864Z,100337.52
2023-04-16T05:42:38.531Z,100339.49
2023-04-16T05:45:07.444Z,100344.15
2023-04-16T05:47:36.055Z,100344.96
2023-04-16T05:50:04.700Z,100345.65
2023-04-16T05:52:33.198Z,100343.30
2023-04-16T05:55:02.040Z,100347.61
2023-04-16T05:57:31.158Z,100351.66
2023-04-16T06:00:00.319Z,100351.20
2023-04-16T06:02:31.197Z,100352.48
2023-04-16T06:05:00.610Z,100355.26
2023-04-16T06:07:29.413Z,100354.73
2023-04-16T06:09:58.774Z,100360.16
2023-04-16T06:12:27.724Z,100359.69
2023-04-16T06:14:57.032Z,100366.42
2023-04-16T06:17:26.034Z,100371.98
2023-04-16T06:19:54.651Z,100374.05
2023-04-16T06:22:23.548Z,100374.87
2023-04-16T06:24:53.774Z,100374.48
2023-04-16T06:27:22.940Z,100378.08
2023-04-16T06:29:52.020Z,100377.71
2023-04-16T06:32:21.617Z,100380.80
2023-04-16T06:34:50.849Z,100382.05
2023-04-16T06:37:20.242Z,100377.40
2023-04-16T06:39:49.329Z,100379.03
2023-04-16T06:42:17.954Z,100375.52
2023-04-16T06:44:47.524Z,100376.91
2023-04-16T06:47:17.630Z,100377.67
2023-04-16T06:49:47.648Z,100383.33
2023-04-16T06:52:16.786Z,100378.52
2023-04-16T06:54:46.246Z,100382.20
2023-04-16T06:57:14.809Z,100382.63
2023-04-16T06:59:44.236Z,100379.17
2023-04-16T07:02:12.512Z,100382.72
2023-04-16T07:04:41.234Z,100386.02
2023-04-16T07:07:09.574Z,100387.07
2023-04-16T07:09:38.488Z,100388.77
2023-04-16T07:12:07.736Z,100393.94
2023-04-16T07:14:36.913Z,100395.09
2023-04-16T07:17:05.901Z,100392.65
2023-04-16T07:19:36.040Z,100393.02
2023-04-16T07:22:05.226Z,100395.70
2023-04-16T07:24:34.015Z,100397.31
2023-04-16T07:27:02.902Z,100399.30
2023-04-16T07:29:32.221Z,100400.81
2023-04-16T07:32:01.134Z,100400.61
2023-04-16T07:34:29.746Z,100401.95
2023-04-16T07:36:58.066Z,100406.89
2023-04-16T07:39:26.720Z,100409.89
2023-04-16T07:41:55.267Z,100410.89
2023-04-16T07:44:23.542Z,100410.21
2023-04-16T07:46:52.332Z,100411.76
2023-04-16T07:49:20.842Z,100416.63
2023-04-16T07:51:49.314Z,100419.59
2023-04-16T07:54:17.846Z,100421.55
2023-04-16T07:56:46.442Z,100422.64
2023-04-16T07:59:23.021Z,100419.55
2023-04-16T08:01:55.273Z,100421.72
2023-04-16T08:04:25.883Z,100424.04
2023-04-16T08:06:55.022Z,100428.33
2023-04-16T08:09:24.794Z,100433.67
2023-04-16T08:11:53.734Z,100434.44
2023-04-16T08:14:22.183Z,100431.77
2023-04-16T08:16:50.602Z,100429.05
2023-04-16T08:19:18.856Z,100433.80
2023-04-16T08:21:47.974Z,100430.33
2023-04-16T08:24:16.973Z,100432.88
2023-04-16T08:26:45.478Z,100434.41
2023-04-16T08:29:13.776Z,100435.26
2023-04-16T08:31:42.323Z,100438.33
2023-04-16T08:34:12.097Z,100439.41
2023-04-16T08:36:41.164Z,100442.06
2023-04-16T08:39:10.519Z,100444.59
2023-04-16T08:41:42.789Z,100445.23
2023-04-16T08:44:21.988Z,100446.23
2023-04-16T08:46:55.173Z,100449.31
2023-04-16T08:49:24.185Z,100447.63
2023-04-16T08:51:54.011Z,100449.63
2023-04-16T08:54:35.023Z,100451.48
2023-04-16T08:57:06.526Z,100454.92
2023-04-16T08:59:35.901Z,100452.30
2023-04-16T09:02:06.676Z,100455.88
2023-04-16T09:04:37.193Z,100456.11
2023-04-16T09:07:08.649Z,100457.89
2023-04-16T09:09:39.049Z,100463.80
2023-04-16T09:12:07.863Z,100463.30
2023-04-16T09:14:36.441Z,100466.47
2023-04-16T09:17:06.736Z,100468.94
2023-04-16T09:19:35.981Z,100471.03
2023-04-16T09:22:04.943Z,100476.36
2023-04-16T09:24:34.296Z,100480.80
2023-04-16T09:27:03.186Z,100484.75
2023-04-16T09:29:38.575Z,100491.01
2023-04-16T09:32:11.221Z,100487.95
2023-04-16T09:35:00.158Z,100491.52
2023-04-16T09:37:33.149Z,100488.79
2023-04-16T09:40:04.469Z,100492.10
2023-04-16T09:42:35.014Z,100489.46
2023-04-16T09:45:05.733Z,100493.90
2023-04-16T09:47:42.841Z,100498.48
2023-04-16T09:50:17.806Z,100497.51
2023-04-16T09:52:51.891Z,100499.30
2023-04-16T09:55:27.479Z,100500.61
2023-04-16T09:58:01.345Z,100504.02
2023-04-16T10:00:32.119Z,100509.20
2023-04-16T10:03:07.726Z,100511.32
2023-04-16T10:05:37.828Z,100513.17
2023-04-16T10:08:13.692Z,100514.14
2023-04-16T10:10:42.769Z,100517.05
2023-04-16T10:13:13.321Z,100517.70
2023-04-16T10:15:41.940Z,100522.27
2023-04-16T10:18:11.198Z,100524.27
2023-04-16T10:20:40.974Z,100526.11
2023-04-16T10:23:10.376Z,100523.45
2023-04-16T10:25:39.225Z,100523.98
2023-04-16T10:28:07.500Z,100521.73
2023-04-16T10:30:37.493Z,100522.55
2023-04-16T10:33:06.751Z,100521.51
2023-04-16T10:35:39.836Z,100520.65
2023-04-16T10:38:27.545Z,100523.36
2023-04-16T10:41:00.590Z,100527.37
2023-04-16T10:43:30.792Z,100529.39
2023-04-16T10:46:17.895Z,100527.27
2023-04-16T10:48:50.794Z,100529.59
2023-04-16T10:51:36.684Z,100535.36
2023-04-16T10:54:09.267Z,100532.34
2023-04-16T10:56:38.197Z,100537.44
2023-04-16T10:59:11.824Z,100536.71
2023-04-16T11:01:44.196Z,100536.30
2023-04-16T11:04:22.583Z,100538.23
2023-04-16T11:07:03.942Z,100543.00
2023-04-16T11:09:47.101Z,100545.54
2023-04-16T11:12:18.922Z,100545.98
2023-04-16T11:14:51.812Z,100552.51
2023-04-16T11:17:21.916Z,100557.45
2023-04-16T11:19:51.461Z,100553.05
2023-04-16T11:22:22.900Z,100560.52
2023-04-16T11:24:55.325Z,100563.88
2023-04-16T11:27:24.361Z,100569.88
2023-04-16T11:30:00.736Z,100572.41
2023-04-16T11:32:31.993Z,100571.48
2023-04-16T11:35:04.457Z,100575.97
2023-04-16T11:37:37.951Z,100577.80
2023-04-16T11:40:07.616Z,100577.05
2023-04-16T11:42:43.640Z,100580.35
2023-04-16T11:45:12.696Z,100584.84
2023-04-16T11:47:46.330Z,100582.64
2023-04-16T11:50:18.417Z,100583.80
2023-04-16T11:52:48.062Z,100582.13
2023-04-16T11:55:17.073Z,100583.45
2023-04-16T11:57:46.323Z,100583.91
2023-04-16T12:00:16.147Z,100589.42
2023-04-16T12:02:46.857Z,100582.94
2023-04-16T12:05:36.320Z,100582.60
2023-04-16T12:08:07.522Z,100583.98
2023-04-16T12:10:37.420Z,100585.53
2023-04-16T12:13:16.853Z,100584.29
2023-04-16T12:15:46.717Z,100588.81
2023-04-16T12:18:19.516Z,100584.89
2023-04-16T12:20:48.340Z,100587.60
2023-04-16T12:23:24.098Z,100589.05
2023-04-16T12:25:53.321Z,100590.55
2023-04-16T12:28:29.482Z,100593.08
2023-04-16T12:30:58.170Z,100594.73
2023-04-16T12:33:27.132Z,100592.94
2023-04-16T12:35:55.697Z,100596.89
2023-04-16T12:38:26.011Z,100595.30
2023-04-16T12:40:57.473Z,100595.19
2023-04-16T12:43:26.694Z,100597.05
2023-04-16T12:45:55.247Z,100588.59
2023-04-16T12:48:24.651Z,100589.70
2023-04-16T12:50:54.446Z,100586.95
2023-04-16T12:53:23.235Z,100588.54
2023-04-16T12:55:51.960Z,100589.23
2023-04-16T12:58:21.327Z,100588.88
2023-04-16T13:00:50.265Z,100592.84
2023-04-16T13:03:21.382Z,100595.95
2023-04-16T13:05:53.988Z,100595.24
2023-04-16T13:08:23.824Z,100593.38
2023-04-16T13:10:52.607Z,100596.69
2023-04-16T13:13:22.394Z,100594.20
2023-04-16T13:15:51.252Z,100591.48
2023-04-16T13:18:25.730Z,100591.16
2023-04-16T13:20:55.488Z,100590.02
2023-04-16T13:23:25.234Z,100593.20
2023-04-16T13:25:53.898Z,100594.30
2023-04-16T13:28:23.657Z,100591.81
2023-04-16T13:30:53.741Z,100592.70
2023-04-16T13:33:22.721Z,100596.92
2023-04-16T13:35:51.193Z,100597.38
2023-04-16T13:38:20.388Z,100597.27
2023-04-16T13:40:49.371Z,100599.08
2023-04-16T13:43:20.009Z,100599.29
2023-04-16T13:45:49.801Z,100605.09
2023-04-16T13:48:19.666Z,100606.64
2023-04-16T13:50:51.781Z,100610.23
2023-04-16T13:53:22.448Z,100610.37
2023-04-16T13:55:51.973Z,100610.00
2023-04-16T13:58:22.234Z,100612.53
2023-04-16T14:00:51.554Z,100613.48
2023-04-16T14:03:20.488Z,100610.96
2023-04-16T14:05:50.025Z,100615.31
2023-04-16T14:08:21.951Z,100617.45
2023-04-16T14:10:51.703Z,100616.66
2023-04-16T14:13:20.828Z,100618.65
2023-04-16T14:15:50.222Z,100618.52
2023-04-16T14:18:19.898Z,100615.83
2023-04-16T14:20:49.498Z,100614.70
2023-04-16T14:23:19.288Z,100615.14
2023-04-16T14:25:48.580Z,100611.80
2023-04-16T14:28:17.637Z,100613.70
2023-04-16T14:30:46.748Z,100612.14
2023-04-16T14:33:16.605Z,100613.19
2023-04-16T14:35:45.650Z,100612.86
2023-04-16T14:38:14.364Z,100612.23
2023-04-16T14:40:42.748Z,100616.02
2023-04-16T14:43:11.279Z,100614.27
2023-04-16T14:45:39.873Z,100608.90
2023-04-16T14:48:08.280Z,100607.71
2023-04-16T14:50:43.789Z,100610.99
2023-04-16T14:53:12.504Z,100614.13
2023-04-16T14:55:40.860Z,100615.86
2023-04-16T14:58:09.843Z,100615.30
2023-04-16T15:00:38.793Z,100618.30
2023-04-16T15:03:07.910Z,100617.83
2023-04-16T15:05:37.356Z,100621.02
2023-04-16T15:08:06.374Z,100622.76
2023-04-16T15:10:35.617Z,100628.30
2023-04-16T15:13:04.760Z,100631.34
2023-04-16T15:15:34.465Z,100632.69
2023-04-16T15:18:03.696Z,100630.63
2023-04-16T15:20:33.886Z,100632.35
2023-04-16T15:23:03.440Z,100629.70
2023-04-16T15:25:32.064Z,100634.89
2023-04-16T15:28:02.889Z,100638.44
2023-04-16T15:30:31.854Z,100639.55
2023-04-16T15:33:00.247Z,100638.67
2023-04-16T15:35:28.750Z,100641.71
2023-04-16T15:37:58.577Z,100645.09
2023-04-16T15:40:27.522Z,100644.48
2023-04-16T15:42:56.938Z,100649.13
2023-04-16T15:45:26.208Z,100651.48
2023-04-16T15:47:55.457Z,100655.31
2023-04-16T15:50:26.197Z,100656.58
2023-04-16T15:52:54.361Z,100657.98
2023-04-16T15:55:22.883Z,100655.63
2023-04-16T15:57:51.602Z,100658.58
2023-04-16T16:00:23.097Z,100657.60
2023-04-16T16:02:52.037Z,100654.69
2023-04-16T16:05:20.919Z,100657.25
2023-04-16T16:07:49.296Z,100656.38
2023-04-16T16:10:18.023Z,100661.98
2023-04-16T16:12:49.808Z,100663.00
2023-04-16T16:15:18.381Z,100662.79
2023-04-16T16:17:47.773Z,100664.42
2023-04-16T16:20:17.251Z,100666.74
2023-04-16T16:22:47.713Z,100663.84
2023-04-16T16:25:16.905Z,100668.73
2023-04-16T16:27:45.114Z,100666.98
2023-04-16T16:30:13.429Z,100670.48
2023-04-16T16:32:44.572Z,100671.59
2023-04-16T16:35:14.101Z,100670.52
2023-04-16T16:37:42.550Z,100673.58
2023-04-16T16:40:11.354Z,100674.29
2023-04-16T16:42:39.819Z,100677.11
2023-04-16T16:45:09.755Z,100675.25
2023-04-16T16:47:41.051Z,100677.54
2023-04-16T16:50:11.746Z,100679.41
2023-04-16T16:52:40.353Z,100679.16
2023-04-16T16:55:11.149Z,100680.47
2023-04-16T16:57:39.928Z,100677.86
2023-04-16T17:00:12.141Z,100681.34
2023-04-16T17:02:40.989Z,100685.38
2023-04-16T17:05:09.894Z,100686.18
2023-04-16T17:07:38.286Z,100684.70
2023-04-16T17:10:07.166Z,100681.45
2023-04-16T17:12:35.679Z,100685.80
2023-04-16T17:15:04.247Z,100691.02
2023-04-16T17:17:33.795Z,100692.38
2023-04-16T17:20:04.220Z,100695.23
2023-04-16T17:22:32.726Z,100697.27
2023-04-16T17:25:02.188Z,100693.85
2023-04-16T17:27:33.924Z,100693.52
2023-04-16T17:30:03.476Z,100698.02
2023-04-16T17:32:33.504Z,100697.52
2023-04-16T17:35:04.577Z,100697.64
2023-04-16T17:37:33.384Z,100701.23
2023-04-16T17:40:01.492Z,100700.17
2023-04-16T17:42:29.601Z,100704.41
2023-04-16T17:44:59.720Z,100709.50
2023-04-16T17:47:28.016Z,100707.50
2023-04-16T17:49:56.980Z,100712.67
2023-04-16T17:52:26.237Z,100716.23
2023-04-16T17:55:00.449Z,100719.64
2023-04-16T17:57:29.142Z,100720.48
2023-04-16T17:59:57.364Z,100721.52
2023-04-16T18:02:26.186Z,100724.88
2023-04-16T18:04:54.772Z,100727.30
2023-04-16T18:07:23.520Z,100727.38
2023-04-16T18:09:52.520Z,100726.64
2023-04-16T18:12:21.264Z,100725.96
2023-04-16T18:14:49.845Z,100727.41
2023-04-16T18:17:18.319Z,100728.85
2023-04-16T18:19:46.530Z,100729.02
2023-04-16T18:22:14.676Z,100729.65
2023-04-16T18:24:43.555Z,100738.73
2023-04-16T18:27:12.895Z,100740.40
2023-04-16T18:29:44.127Z,100744.69
2023-04-16T18:32:14.064Z,100745.95
2023-04-16T18:34:42.395Z,100752.23
2023-04-16T18:37:11.276Z,100746.17
2023-04-16T18:39:39.388Z,100747.19
2023-04-16T18:42:08.086Z,100746.93
2023-04-16T18:44:36.205Z,100753.27
2023-04-16T18:47:05.295Z,100764.48
2023-04-16T18:49:33.777Z,100763.17
2023-04-16T18:52:02.410Z,100762.48
2023-04-16T18:54:30.772Z,100765.84
2023-04-16T18:57:00.822Z,100764.69
2023-04-16T18:59:29.635Z,100763.87
2023-04-16T19:01:58.174Z,100766.61
2023-04-16T19:04:26.564Z,100766.77
2023-04-16T19:06:55.122Z,100765.77
2023-04-16T19:09:25.238Z,100768.04
2023-04-16T19:11:54.099Z,100767.24
2023-04-16T19:14:23.218Z,100770.80
2023-04-16T19:16:52.021Z,100768.45
2023-04-16T19:19:20.499Z,100767.95
2023-04-16T19:21:50.176Z,100769.95
2023-04-16T19:24:20.036Z,100765.05
2023-04-16T19:26:48.659Z,100768.82
2023-04-16T19:29:18.489Z,100769.13
2023-04-16T19:31:48.456Z,100770.10
2023-04-16T19:34:17.320Z,100774.00
2023-04-16T19:36:46.553Z,100772.61
2023-04-16T19:39:15.413Z,100772.85
2023-04-16T19:41:44.639Z,100773.82
2023-04-16T19:44:13.166Z,100772.88
2023-04-16T19:46:41.949Z,100772.43
2023-04-16T19:49:11.224Z,100771.82
2023-04-16T19:51:40.107Z,100778.08
2023-04-16T19:54:09.234Z,100778.46
2023-04-16T19:56:37.835Z,100777.02
2023-04-16T19:59:06.488Z,100776.95
2023-04-16T20:01:34.938Z,100778.89
2023-04-16T20:04:03.228Z,100778.09
2023-04-16T20:06:32.059Z,100781.52
2023-04-16T20:09:00.554Z,100786.17
2023-04-16T20:11:29.309Z,100786.62
2023-04-16T20:14:00.681Z,100792.36
2023-04-16T20:16:30.379Z,100792.70
2023-04-16T20:19:08.775Z,100797.77
2023-04-16T20:21:40.916Z,100802.15
2023-04-16T20:24:11.231Z,100802.46
2023-04-16T20:26:39.566Z,100803.67
2023-04-16T20:29:08.481Z,100807.30
2023-04-16T20:31:38.366Z,100804.73
2023-04-16T20:34:07.853Z,100806.86
2023-04-16T20:36:37.050Z,100807.14
2023-04-16T20:39:07.464Z,100808.12
2023-04-16T20:41:40.374Z,100806.97
2023-04-16T20:44:10.869Z,100807.73
2023-04-16T20:46:39.870Z,100805.35
2023-04-16T20:49:09.831Z,100807.80
2023-04-16T20:51:40.291Z,100810.54
2023-04-16T20:54:10.948Z,100809.86
2023-04-16T20:56:39.792Z,100812.23
2023-04-16T20:59:08.997Z,100809.58
2023-04-16T21:01:38.142Z,100811.70
2023-04-16T21:04:07.254Z,100814.63
2023-04-16T21:06:39.113Z,100814.40
2023-04-16T21:09:08.051Z,100821.73
2023-04-16T21:11:37.344Z,100818.46
2023-04-16T21:14:07.086Z,100816.80
2023-04-16T21:16:36.292Z,100820.65
2023-04-16T21:19:05.234Z,100818.14
2023-04-16T21:21:34.808Z,100816.89
2023-04-16T21:24:03.585Z,100818.58
2023-04-16T21:26:32.103Z,100819.31
2023-04-16T21:29:01.526Z,100819.08
2023-04-16T21:31:30.328Z,100820.98
2023-04-16T21:33:59.402Z,100819.88
2023-04-16T21:36:29.706Z,100820.98
2023-04-16T21:38:58.186Z,100817.86
2023-04-16T21:41:27.261Z,100818.02
2023-04-16T21:43:56.663Z,100814.16
2023-04-16T21:46:27.276Z,100816.61
2023-04-16T21:48:56.495Z,100813.68
2023-04-16T21:51:30.155Z,100815.77
2023-04-16T21:53:58.807Z,100813.64
2023-04-16T21:56:28.231Z,100814.73
2023-04-16T21:58:57.230Z,100812.73
2023-04-16T22:01:26.001Z,100813.48
2023-04-16T22:03:55.239Z,100811.58
2023-04-16T22:06:24.318Z,100813.52
2023-04-16T22:08:54.017Z,100814.84
2023-04-16T22:11:23.384Z,100814.69
2023-04-16T22:13:52.311Z,100816.80
2023-04-16T22:16:21.577Z,100815.33
2023-04-16T22:18:50.811Z,100813.59
2023-04-16T22:21:22.273Z,100818.76
2023-04-16T22:23:51.593Z,100817.30
2023-04-16T22:26:20.742Z,100814.18
2023-04-16T22:28:49.676Z,100820.29
2023-04-16T22:31:17.972Z,100815.80
2023-04-16T22:33:46.785Z,100818.95
2023-04-16T22:36:15.591Z,100824.09
2023-04-16T22:38:44.545Z,100822.55
2023-04-16T22:41:13.627Z,100823.94
2023-04-16T22:43:43.504Z,100826.67
2023-04-16T22:46:13.262Z,100826.17
2023-04-16T22:48:42.255Z,100826.39
2023-04-16T22:51:11.455Z,100825.05
2023-04-16T22:53:40.563Z,100822.70
2023-04-16T22:56:09.331Z,100828.69
2023-04-16T22:58:40.628Z,100823.04
2023-04-16T23:01:09.436Z,100825.02
2023-04-16T23:03:38.468Z,100823.23
2023-04-16T23:06:07.459Z,100829.59
2023-04-16T23:08:36.210Z,100825.92
2023-04-16T23:11:05.037Z,100829.41
2023-04-16T23:13:33.964Z,100831.34
2023-04-16T23:16:03.016Z,100832.73
2023-04-16T23:18:32.250Z,100833.38
2023-04-16T23:21:01.286Z,100832.82
2023-04-16T23:23:30.504Z,100829.15
2023-04-16T23:25:59.761Z,100830.55
2023-04-16T23:28:28.676Z,100829.25
2023-04-16T23:30:57.590Z,100831.55
2023-04-16T23:33:26.772Z,100828.41
2023-04-16T23:35:55.622Z,100828.89
2023-04-16T23:38:24.587Z,100826.42
2023-04-16T23:40:53.383Z,100827.80
2023-04-16T23:43:22.755Z,100829.91
2023-04-16T23:45:51.031Z,100829.71
2023-04-16T23:48:20.118Z,100829.17
2023-04-16T23:50:49.092Z,100829.63
2023-04-16T23:53:18.345Z,100830.23
2023-04-16T23:55:47.149Z,100826.45
2023-04-16T23:58:16.191Z,100829.20
